createdAt,value
2019-04-30T00:00:00.488Z,14.50
2019-04-30T00:02:40.056Z,17.87
2019-04-30T00:05:09.969Z,16.87
2019-04-30T00:07:39.331Z,16.07
2019-04-30T00:10:08.151Z,16.37
2019-04-30T00:12:39.492Z,15.13
2019-04-30T00:15:11.089Z,16.77
2019-04-30T00:17:36.993Z,15.23
2019-04-30T00:20:06.651Z,19.17
2019-04-30T00:22:39.303Z,18.73
2019-04-30T00:25:06.804Z,19.13
2019-04-30T00:27:35.598Z,18.83
2019-04-30T00:30:08.898Z,18.37
2019-04-30T00:32:37.218Z,21.20
2019-04-30T00:35:07.360Z,17.63
2019-04-30T00:37:36.916Z,18.47
2019-04-30T00:40:06.284Z,19.90
2019-04-30T00:42:35.749Z,20.13
2019-04-30T00:45:09.895Z,21.47
2019-04-30T00:47:39.474Z,21.83
2019-04-30T00:50:09.784Z,19.60
2019-04-30T00:52:38.176Z,21.50
2019-04-30T00:55:09.157Z,20.23
2019-04-30T00:57:43.797Z,20.27
2019-04-30T01:00:11.506Z,22.23
2019-04-30T01:03:00.825Z,20.70
2019-04-30T01:05:27.114Z,26.87
2019-04-30T01:07:55.592Z,20.47
2019-04-30T01:10:28.218Z,20.80
2019-04-30T01:12:54.383Z,20.20
2019-04-30T01:15:22.760Z,19.00
2019-04-30T01:17:53.725Z,22.50
2019-04-30T01:20:24.026Z,21.60
2019-04-30T01:22:52.587Z,21.10
2019-04-30T01:25:20.983Z,22.43
2019-04-30T01:27:50.919Z,22.03
2019-04-30T01:30:22.697Z,22.60
2019-04-30T01:32:56.199Z,22.17
2019-04-30T01:35:23.871Z,25.07
2019-04-30T01:37:49.904Z,23.50
2019-04-30T01:40:19.007Z,21.53
2019-04-30T01:42:50.415Z,20.50
2019-04-30T01:45:18.753Z,20.40
2019-04-30T01:47:49.458Z,25.73
2019-04-30T01:50:19.275Z,22.83
2019-04-30T01:52:53.446Z,22.93
2019-04-30T01:55:26.703Z,24.27
2019-04-30T01:58:11.947Z,22.13
2019-04-30T02:00:53.804Z,26.20
2019-04-30T02:03:22.203Z,23.37
2019-04-30T02:05:50.599Z,31.03
2019-04-30T02:08:19.563Z,24.67
2019-04-30T02:10:49.165Z,26.83
2019-04-30T02:13:18.900Z,23.17
2019-04-30T02:15:49.268Z,25.73
2019-04-30T02:18:19.391Z,30.20
2019-04-30T02:20:49.513Z,27.60
2019-04-30T02:23:19.628Z,26.63
2019-04-30T02:25:48.945Z,27.80
2019-04-30T02:28:18.982Z,25.23
2019-04-30T02:30:50.419Z,28.37
2019-04-30T02:33:19.804Z,29.00
2019-04-30T02:36:05.865Z,27.50
2019-04-30T02:38:35.908Z,28.83
2019-04-30T02:41:06.365Z,30.77
2019-04-30T02:43:35.897Z,26.50
2019-04-30T02:46:05.428Z,26.60
2019-04-30T02:48:36.218Z,25.63
2019-04-30T02:51:06.520Z,27.97
2019-04-30T02:53:52.961Z,32.73
2019-04-30T02:56:26.269Z,28.80
2019-04-30T02:58:53.272Z,27.77
2019-04-30T03:01:21.942Z,27.27
2019-04-30T03:03:50.440Z,31.60
2019-04-30T03:06:20.399Z,29.17
2019-04-30T03:08:51.266Z,27.23
2019-04-30T03:11:20.740Z,31.03
2019-04-30T03:13:49.777Z,30.03
2019-04-30T03:16:20.751Z,28.93
2019-04-30T03:18:54.039Z,28.20
2019-04-30T03:21:42.315Z,27.17
2019-04-30T03:24:11.319Z,29.00
2019-04-30T03:26:40.386Z,31.00
2019-04-30T03:29:11.111Z,27.07
2019-04-30T03:31:44.333Z,30.83
2019-04-30T03:34:17.009Z,29.63
2019-04-30T03:36:40.352Z,27.77
2019-04-30T03:39:10.814Z,30.30
2019-04-30T03:41:41.209Z,29.77
2019-04-30T03:44:18.535Z,28.77
2019-04-30T03:46:40.231Z,27.63
2019-04-30T03:49:12.572Z,29.97
2019-04-30T03:51:40.300Z,31.43
2019-04-30T03:54:10.300Z,29.40
2019-04-30T03:56:39.780Z,29.10
2019-04-30T03:59:10.555Z,32.27
2019-04-30T04:01:40.975Z,28.20
2019-04-30T04:04:11.020Z,28.13
2019-04-30T04:06:43.772Z,29.87
2019-04-30T04:09:16.741Z,33.47
2019-04-30T04:11:46.795Z,37.40
2019-04-30T04:14:15.182Z,33.03
2019-04-30T04:16:43.581Z,33.83
2019-04-30T04:19:11.958Z,30.13
2019-04-30T04:21:40.335Z,32.10
2019-04-30T04:24:10.585Z,35.90
2019-04-30T04:26:43.370Z,34.40
2019-04-30T04:29:09.433Z,31.50
2019-04-30T04:31:39.497Z,31.73
2019-04-30T04:34:09.299Z,32.40
2019-04-30T04:36:42.949Z,34.77
2019-04-30T04:39:09.849Z,43.90
2019-04-30T04:41:39.941Z,33.33
2019-04-30T04:44:12.557Z,31.80
2019-04-30T04:46:40.216Z,35.00
2019-04-30T04:49:09.100Z,35.63
2019-04-30T04:51:41.279Z,33.80
2019-04-30T04:54:10.162Z,36.63
2019-04-30T04:56:39.862Z,34.20
2019-04-30T04:59:10.192Z,35.10
2019-04-30T05:01:38.828Z,38.07
2019-04-30T05:04:11.455Z,38.77
2019-04-30T05:06:39.478Z,39.33
2019-04-30T05:09:09.729Z,39.90
2019-04-30T05:11:39.580Z,41.17
2019-04-30T05:14:08.357Z,36.80
2019-04-30T05:16:38.898Z,37.50
2019-04-30T05:19:08.897Z,39.90
2019-04-30T05:21:44.136Z,34.73
2019-04-30T05:24:09.056Z,35.53
2019-04-30T05:26:38.672Z,32.10
2019-04-30T05:29:07.148Z,33.93
2019-04-30T05:31:35.542Z,34.13
2019-04-30T05:34:06.296Z,35.10
2019-04-30T05:36:34.107Z,32.53
2019-04-30T05:39:02.559Z,29.47
2019-04-30T05:41:30.952Z,34.93
2019-04-30T05:43:59.351Z,34.80
2019-04-30T05:46:29.634Z,37.40
2019-04-30T05:48:59.421Z,31.23
2019-04-30T05:51:28.892Z,29.27
2019-04-30T05:53:59.245Z,32.93
2019-04-30T05:56:30.141Z,34.27
2019-04-30T05:58:59.317Z,34.07
2019-04-30T06:01:29.533Z,28.67
2019-04-30T06:03:59.478Z,36.47
2019-04-30T06:06:29.010Z,31.93
2019-04-30T06:09:06.217Z,29.17
2019-04-30T06:11:43.107Z,29.90
2019-04-30T06:14:29.367Z,30.27
2019-04-30T06:17:11.431Z,36.23
2019-04-30T06:19:39.888Z,31.93
2019-04-30T06:22:10.726Z,36.60
2019-04-30T06:24:39.522Z,34.40
2019-04-30T06:27:10.589Z,32.53
2019-04-30T06:29:39.126Z,29.63
2019-04-30T06:32:08.648Z,30.67
2019-04-30T06:34:41.603Z,33.07
2019-04-30T06:37:09.645Z,31.83
2019-04-30T06:39:38.754Z,27.13
2019-04-30T06:42:12.230Z,37.80
2019-04-30T06:44:41.618Z,28.00
2019-04-30T06:47:09.159Z,33.27
2019-04-30T06:49:39.248Z,45.90
2019-04-30T06:52:19.542Z,28.03
2019-04-30T06:54:39.304Z,25.70
2019-04-30T06:57:09.818Z,30.17
2019-04-30T06:59:39.617Z,22.80
2019-04-30T07:02:09.076Z,27.53
2019-04-30T07:04:39.978Z,28.07
2019-04-30T07:07:09.096Z,20.73
2019-04-30T07:09:51.719Z,22.37
2019-04-30T07:12:30.639Z,20.40
2019-04-30T07:14:59.345Z,23.80
2019-04-30T07:17:29.215Z,37.53
2019-04-30T07:19:59.507Z,20.27
2019-04-30T07:22:37.570Z,22.13
2019-04-30T07:24:59.554Z,20.23
2019-04-30T07:27:31.881Z,21.13
2019-04-30T07:29:59.621Z,19.40
2019-04-30T07:32:28.773Z,21.93
2019-04-30T07:34:59.282Z,19.73
2019-04-30T07:37:29.240Z,18.27
2019-04-30T07:39:58.895Z,17.67
2019-04-30T07:42:29.468Z,29.23
2019-04-30T07:45:00.410Z,21.37
2019-04-30T07:47:29.557Z,20.93
2019-04-30T07:50:00.467Z,24.93
2019-04-30T07:52:33.283Z,23.40
2019-04-30T07:55:00.623Z,27.33
2019-04-30T07:57:29.157Z,20.90
2019-04-30T08:00:00.526Z,21.17
2019-04-30T08:02:36.108Z,21.57
2019-04-30T08:05:10.508Z,31.23
2019-04-30T08:07:39.127Z,21.67
2019-04-30T08:10:09.014Z,25.73
2019-04-30T08:12:41.791Z,23.40
2019-04-30T08:15:09.618Z,22.10
2019-04-30T08:17:38.938Z,25.90
2019-04-30T08:20:08.753Z,24.57
2019-04-30T08:22:40.878Z,25.43
2019-04-30T08:25:09.628Z,22.60
2019-04-30T08:27:39.255Z,24.43
2019-04-30T08:30:21.303Z,22.50
2019-04-30T08:32:39.035Z,24.10
2019-04-30T08:35:09.911Z,22.57
2019-04-30T08:37:38.567Z,21.90
2019-04-30T08:40:08.663Z,23.47
2019-04-30T08:42:38.420Z,25.30
2019-04-30T08:45:09.454Z,23.30
2019-04-30T08:47:39.223Z,21.70
2019-04-30T08:50:09.786Z,25.80
2019-04-30T08:52:39.451Z,22.60
2019-04-30T08:55:16.196Z,22.97
2019-04-30T08:57:39.557Z,24.47
2019-04-30T09:00:09.226Z,25.03
2019-04-30T09:02:39.107Z,20.53
2019-04-30T09:05:09.873Z,23.60
2019-04-30T09:07:38.760Z,32.67
2019-04-30T09:10:09.170Z,24.30
2019-04-30T09:12:37.409Z,27.23
2019-04-30T09:15:09.174Z,26.57
2019-04-30T09:17:38.600Z,27.87
2019-04-30T09:20:09.080Z,29.87
2019-04-30T09:22:37.240Z,30.90
2019-04-30T09:25:06.579Z,32.00
2019-04-30T09:27:34.975Z,29.53
2019-04-30T09:30:05.392Z,29.43
2019-04-30T09:32:33.812Z,30.60
2019-04-30T09:35:02.172Z,31.57
2019-04-30T09:37:30.688Z,29.80
2019-04-30T09:39:59.316Z,29.57
2019-04-30T09:42:29.610Z,30.37
2019-04-30T09:44:59.610Z,33.10
2019-04-30T09:47:29.535Z,31.97
2019-04-30T09:49:59.605Z,30.07
2019-04-30T09:52:30.206Z,32.63
2019-04-30T09:54:59.449Z,27.80
2019-04-30T09:57:29.035Z,34.60
2019-04-30T09:59:57.616Z,34.83
2019-04-30T10:02:26.005Z,29.67
2019-04-30T10:04:54.809Z,32.70
2019-04-30T10:07:24.331Z,31.83
2019-04-30T10:09:52.713Z,39.50
2019-04-30T10:12:25.870Z,31.13
2019-04-30T10:14:54.260Z,30.23
2019-04-30T10:17:24.287Z,33.83
2019-04-30T10:19:52.680Z,35.00
2019-04-30T10:22:21.089Z,31.57
2019-04-30T10:24:49.640Z,31.63
2019-04-30T10:27:19.111Z,36.27
2019-04-30T10:29:49.350Z,28.33
2019-04-30T10:32:18.695Z,37.97
2019-04-30T10:34:47.336Z,26.70
2019-04-30T10:37:15.797Z,30.87
2019-04-30T10:39:44.247Z,28.10
2019-04-30T10:42:12.620Z,23.90
2019-04-30T10:44:41.012Z,23.90
2019-04-30T10:47:09.451Z,50.40
2019-04-30T10:49:38.891Z,22.17
2019-04-30T10:52:09.325Z,25.83
2019-04-30T10:54:38.892Z,25.57
2019-04-30T10:57:08.666Z,20.83
2019-04-30T10:59:37.293Z,22.53
2019-04-30T11:02:05.833Z,29.03
2019-04-30T11:04:34.223Z,20.80
2019-04-30T11:07:03.520Z,23.50
2019-04-30T11:09:32.587Z,22.48
2019-04-30T11:12:02.980Z,21.15
2019-04-30T11:14:31.181Z,29.35
2019-04-30T11:17:00.059Z,24.65
2019-04-30T11:19:29.331Z,26.27
2019-04-30T11:21:58.177Z,21.23
2019-04-30T11:24:35.779Z,22.07
2019-04-30T11:26:59.209Z,22.87
2019-04-30T11:29:30.572Z,23.20
2019-04-30T11:31:58.800Z,22.77
2019-04-30T11:34:28.269Z,23.17
2019-04-30T11:36:56.895Z,19.43
2019-04-30T11:39:25.764Z,19.50
2019-04-30T11:41:54.168Z,20.60
2019-04-30T11:44:31.069Z,23.23
2019-04-30T11:46:59.572Z,22.87
2019-04-30T11:49:28.100Z,21.20
2019-04-30T11:51:56.560Z,18.67
2019-04-30T11:54:25.037Z,21.95
2019-04-30T11:56:53.421Z,23.25
2019-04-30T11:59:21.825Z,23.67
2019-04-30T12:01:51.876Z,24.00
2019-04-30T12:04:20.243Z,18.40
2019-04-30T12:06:48.699Z,23.40
2019-04-30T12:09:35.353Z,20.40
2019-04-30T12:12:03.804Z,24.37
2019-04-30T12:14:32.183Z,22.30
2019-04-30T12:17:00.581Z,23.90
2019-04-30T12:19:28.959Z,24.35
2019-04-30T12:21:57.359Z,18.57
2019-04-30T12:24:25.740Z,18.37
2019-04-30T12:26:54.215Z,24.20
2019-04-30T12:29:22.632Z,20.68
2019-04-30T12:31:51.025Z,20.75
2019-04-30T12:34:19.425Z,18.50
2019-04-30T12:36:49.614Z,19.65
2019-04-30T12:39:18.107Z,20.55
2019-04-30T12:41:46.491Z,27.65
2019-04-30T12:44:14.905Z,18.75
2019-04-30T12:46:43.288Z,24.47
2019-04-30T12:49:12.854Z,17.75
2019-04-30T12:51:46.089Z,16.67
2019-04-30T12:54:20.357Z,21.93
2019-04-30T12:57:02.451Z,21.45
2019-04-30T12:59:30.848Z,20.08
2019-04-30T13:01:59.409Z,19.02
2019-04-30T13:04:29.348Z,20.70
2019-04-30T13:07:01.581Z,17.27
2019-04-30T13:09:30.249Z,24.95
2019-04-30T13:12:00.358Z,20.85
2019-04-30T13:14:30.152Z,23.27
2019-04-30T13:16:59.062Z,24.80
2019-04-30T13:19:27.500Z,17.98
2019-04-30T13:21:58.500Z,19.15
2019-04-30T13:24:26.161Z,19.67
2019-04-30T13:26:54.600Z,18.12
2019-04-30T13:29:30.552Z,17.70
2019-04-30T13:31:59.012Z,25.50
2019-04-30T13:34:45.241Z,20.82
2019-04-30T13:37:13.686Z,23.70
2019-04-30T13:39:52.144Z,21.40
2019-04-30T13:42:20.606Z,20.17
2019-04-30T13:44:49.386Z,18.77
2019-04-30T13:47:19.180Z,22.22
2019-04-30T13:49:49.422Z,20.80
2019-04-30T13:52:17.941Z,31.35
2019-04-30T13:54:46.334Z,20.08
2019-04-30T13:57:14.726Z,18.98
2019-04-30T13:59:43.108Z,19.93
2019-04-30T14:02:11.583Z,16.12
2019-04-30T14:04:50.327Z,20.12
2019-04-30T14:07:26.371Z,27.98
2019-04-30T14:09:54.776Z,20.62
2019-04-30T14:12:23.162Z,22.17
2019-04-30T14:14:51.556Z,22.07
2019-04-30T14:17:19.956Z,20.45
2019-04-30T14:19:48.343Z,17.05
2019-04-30T14:22:16.740Z,17.37
2019-04-30T14:24:45.139Z,19.23
2019-04-30T14:27:13.528Z,20.37
2019-04-30T14:29:41.927Z,22.00
2019-04-30T14:32:10.380Z,18.32
2019-04-30T14:34:39.534Z,17.95
2019-04-30T14:37:08.235Z,17.30
2019-04-30T14:39:37.985Z,21.62
2019-04-30T14:42:10.017Z,17.90
2019-04-30T14:44:40.450Z,17.30
2019-04-30T14:47:20.864Z,22.13
2019-04-30T14:50:09.858Z,18.12
2019-04-30T14:52:40.348Z,20.35
2019-04-30T14:55:10.536Z,23.32
2019-04-30T14:57:51.287Z,19.30
2019-04-30T15:00:33.486Z,18.07
2019-04-30T15:03:06.484Z,20.27
2019-04-30T15:05:40.431Z,17.92
2019-04-30T15:08:05.061Z,15.98
2019-04-30T15:10:33.448Z,18.05
2019-04-30T15:13:02.642Z,19.50
2019-04-30T15:15:31.188Z,20.80
2019-04-30T15:17:59.650Z,16.67
2019-04-30T15:20:29.628Z,22.67
2019-04-30T15:23:19.206Z,17.52
2019-04-30T15:25:46.558Z,20.15
2019-04-30T15:28:16.824Z,22.73
2019-04-30T15:30:45.235Z,16.40
2019-04-30T15:33:20.951Z,17.00
2019-04-30T15:35:50.319Z,17.92
2019-04-30T15:38:19.376Z,18.55
2019-04-30T15:40:47.953Z,21.45
2019-04-30T15:43:16.343Z,19.73
2019-04-30T15:45:44.730Z,17.85
2019-04-30T15:48:13.128Z,17.90
2019-04-30T15:50:41.524Z,17.25
2019-04-30T15:53:09.923Z,17.00
2019-04-30T15:55:38.328Z,20.60
2019-04-30T15:58:09.314Z,23.55
2019-04-30T16:00:39.396Z,27.13
2019-04-30T16:03:09.681Z,26.23
2019-04-30T16:05:39.707Z,25.68
2019-04-30T16:08:09.748Z,25.68
2019-04-30T16:10:58.528Z,26.90
2019-04-30T16:13:30.562Z,27.47
2019-04-30T16:15:59.208Z,31.10
2019-04-30T16:18:30.409Z,31.50
2019-04-30T16:20:59.416Z,32.47
2019-04-30T16:23:27.918Z,28.33
2019-04-30T16:25:56.312Z,26.30
2019-04-30T16:28:24.696Z,31.07
2019-04-30T16:30:53.097Z,27.87
2019-04-30T16:33:21.475Z,28.90
2019-04-30T16:35:51.088Z,31.70
2019-04-30T16:38:20.993Z,30.40
2019-04-30T16:40:49.509Z,27.60
2019-04-30T16:43:18.629Z,29.97
2019-04-30T16:45:49.360Z,32.00
2019-04-30T16:48:19.338Z,29.43
2019-04-30T16:50:50.893Z,32.23
2019-04-30T16:53:18.426Z,29.27
2019-04-30T16:55:50.401Z,31.63
2019-04-30T16:58:19.580Z,31.97
2019-04-30T17:00:49.116Z,31.43
2019-04-30T17:03:24.716Z,30.80
2019-04-30T17:05:54.742Z,29.03
2019-04-30T17:08:39.770Z,31.60
2019-04-30T17:11:26.231Z,33.17
2019-04-30T17:13:56.267Z,32.37
2019-04-30T17:16:24.736Z,27.70
2019-04-30T17:18:53.191Z,29.13
2019-04-30T17:21:21.584Z,28.80
2019-04-30T17:23:50.980Z,29.83
2019-04-30T17:26:19.547Z,28.80
2019-04-30T17:28:49.767Z,28.17
2019-04-30T17:31:18.056Z,32.20
2019-04-30T17:33:46.448Z,33.57
2019-04-30T17:36:15.003Z,30.20
2019-04-30T17:38:43.408Z,31.90
2019-04-30T17:41:11.780Z,30.90
2019-04-30T17:43:41.665Z,33.33
2019-04-30T17:46:10.332Z,32.27
2019-04-30T17:48:39.378Z,28.53
2019-04-30T17:51:09.448Z,30.93
2019-04-30T17:53:39.609Z,35.87
2019-04-30T17:56:08.067Z,29.70
2019-04-30T17:58:36.456Z,29.83
2019-04-30T18:01:06.564Z,31.03
2019-04-30T18:03:34.967Z,32.50
2019-04-30T18:06:03.347Z,28.40
2019-04-30T18:08:31.811Z,32.03
2019-04-30T18:11:00.266Z,35.57
2019-04-30T18:13:28.897Z,28.10
2019-04-30T18:16:00.234Z,27.30
2019-04-30T18:18:31.929Z,32.10
2019-04-30T18:21:01.979Z,28.80
2019-04-30T18:23:37.984Z,28.40
2019-04-30T18:26:08.018Z,34.40
2019-04-30T18:28:36.408Z,29.27
2019-04-30T18:31:04.868Z,36.00
2019-04-30T18:33:33.248Z,29.13
2019-04-30T18:36:01.638Z,27.67
2019-04-30T18:38:31.146Z,35.87
2019-04-30T18:40:59.971Z,29.67
2019-04-30T18:43:28.819Z,29.50
2019-04-30T18:45:57.329Z,32.97
2019-04-30T18:48:25.716Z,31.07
2019-04-30T18:50:54.184Z,30.47
2019-04-30T18:53:28.587Z,34.87
2019-04-30T18:55:59.039Z,37.40
2019-04-30T18:58:37.534Z,30.87
2019-04-30T19:00:59.182Z,34.33
2019-04-30T19:03:29.184Z,32.20
2019-04-30T19:05:59.137Z,32.20
2019-04-30T19:08:29.461Z,34.43
2019-04-30T19:11:05.367Z,31.93
2019-04-30T19:13:50.984Z,35.20
2019-04-30T19:16:25.222Z,35.93
2019-04-30T19:19:00.946Z,36.00
2019-04-30T19:21:29.679Z,40.83
2019-04-30T19:23:58.654Z,40.53
2019-04-30T19:26:29.154Z,36.67
2019-04-30T19:28:57.352Z,41.03
2019-04-30T19:31:25.740Z,40.37
2019-04-30T19:33:54.131Z,34.47
2019-04-30T19:36:35.151Z,43.13
2019-04-30T19:38:52.643Z,39.73
2019-04-30T19:41:21.015Z,39.57
2019-04-30T19:43:50.090Z,41.47
2019-04-30T19:46:18.844Z,44.80
2019-04-30T19:48:50.405Z,42.27
2019-04-30T19:51:19.610Z,46.63
2019-04-30T19:53:48.944Z,45.27
2019-04-30T19:56:18.301Z,44.20
2019-04-30T19:58:59.202Z,46.43
2019-04-30T20:01:17.887Z,49.97
2019-04-30T20:03:46.284Z,48.63
2019-04-30T20:06:14.659Z,49.40
2019-04-30T20:08:43.044Z,48.27
2019-04-30T20:11:11.453Z,51.00
2019-04-30T20:13:40.450Z,49.23
2019-04-30T20:16:09.602Z,51.83
2019-04-30T20:18:38.997Z,50.23
2019-04-30T20:21:09.466Z,52.87
2019-04-30T20:23:37.848Z,59.23
2019-04-30T20:26:06.227Z,56.63
2019-04-30T20:28:39.980Z,57.70
2019-04-30T20:31:04.720Z,53.43
2019-04-30T20:33:33.099Z,56.63
2019-04-30T20:36:01.557Z,56.37
2019-04-30T20:38:34.284Z,60.10
2019-04-30T20:41:04.003Z,63.67
2019-04-30T20:43:32.395Z,59.77
2019-04-30T20:46:01.076Z,58.87
2019-04-30T20:48:30.016Z,65.13
2019-04-30T20:51:01.119Z,61.23
2019-04-30T20:53:28.621Z,72.10
2019-04-30T20:55:59.183Z,68.57
2019-04-30T20:58:27.117Z,66.03
2019-04-30T21:01:04.101Z,75.70
2019-04-30T21:03:25.620Z,75.40
2019-04-30T21:05:54.011Z,71.77
2019-04-30T21:08:22.390Z,76.97
2019-04-30T21:10:50.764Z,80.30
2019-04-30T21:13:19.481Z,80.70
2019-04-30T21:15:49.627Z,96.87
2019-04-30T21:18:19.500Z,91.37
2019-04-30T21:20:49.651Z,98.57
2019-04-30T21:23:19.430Z,92.23
2019-04-30T21:25:48.800Z,96.43
2019-04-30T21:28:19.487Z,101.57
2019-04-30T21:30:47.611Z,103.00
2019-04-30T21:33:20.665Z,104.77
2019-04-30T21:35:53.288Z,105.90
2019-04-30T21:38:21.680Z,107.07
2019-04-30T21:40:50.058Z,105.00
2019-04-30T21:43:18.457Z,101.93
2019-04-30T21:45:46.837Z,110.60
2019-04-30T21:48:15.219Z,108.00
2019-04-30T21:50:43.616Z,109.60
2019-04-30T21:53:12.069Z,116.47
2019-04-30T21:55:40.445Z,118.10
2019-04-30T21:58:09.530Z,105.03
2019-04-30T22:00:42.392Z,111.43
2019-04-30T22:03:10.840Z,106.07
2019-04-30T22:05:39.233Z,115.97
2019-04-30T22:08:09.102Z,115.37
2019-04-30T22:10:37.689Z,119.47
2019-04-30T22:13:06.154Z,114.93
2019-04-30T22:15:34.540Z,134.73
2019-04-30T22:18:02.925Z,132.80
2019-04-30T22:20:31.962Z,127.23
2019-04-30T22:23:00.339Z,122.07
2019-04-30T22:25:29.295Z,128.07
2019-04-30T22:27:57.908Z,124.87
2019-04-30T22:30:26.291Z,129.83
2019-04-30T22:32:54.691Z,134.33
2019-04-30T22:35:27.272Z,148.50
2019-04-30T22:37:59.159Z,138.27
2019-04-30T22:40:31.306Z,133.20
2019-04-30T22:42:59.258Z,128.37
2019-04-30T22:45:29.280Z,129.67
2019-04-30T22:47:58.845Z,128.90
2019-04-30T22:50:27.540Z,133.53
2019-04-30T22:52:55.991Z,126.43
2019-04-30T22:55:24.390Z,125.17
2019-04-30T22:57:52.798Z,129.17
2019-04-30T23:00:22.978Z,146.90
2019-04-30T23:02:58.744Z,153.57
2019-04-30T23:05:27.135Z,164.47
2019-04-30T23:07:55.520Z,180.20
2019-04-30T23:10:24.148Z,188.33
2019-04-30T23:12:52.532Z,190.23
2019-04-30T23:15:21.659Z,201.33
2019-04-30T23:17:50.066Z,200.87
2019-04-30T23:20:18.520Z,212.03
2019-04-30T23:22:47.056Z,210.60
2019-04-30T23:25:15.509Z,222.37
2019-04-30T23:27:43.906Z,207.43
2019-04-30T23:30:12.689Z,219.90
2019-04-30T23:32:41.081Z,220.90
2019-04-30T23:35:09.540Z,203.50
2019-04-30T23:37:37.924Z,205.30
2019-04-30T23:40:26.645Z,208.03
2019-04-30T23:42:55.095Z,218.23
2019-04-30T23:45:24.044Z,203.60
2019-04-30T23:47:52.672Z,221.33
2019-04-30T23:50:21.056Z,232.40
2019-04-30T23:52:49.444Z,224.57
2019-04-30T23:55:17.836Z,221.17
2019-04-30T23:57:46.227Z,245.77
